sensor_id;sensor_type;location;lat;lon;timestamp;P1;durP1;ratioP1;P2;durP2;ratioP2
19905;SDS011;10115;50.906;4.438;2023-01-08T00:01:56;4.63;;;4.43;;
19905;SDS011;10115;50.906;4.438;2023-01-08T00:04:21;4.90;;;3.73;;
19905;SDS011;10115;50.906;4.438;2023-01-08T00:06:47;10.13;;;4.63;;
19905;SDS011;10115;50.906;4.438;2023-01-08T00:09:13;3.50;;;3.40;;
19905;SDS011;10115;50.906;4.438;2023-01-08T00:11:38;4.13;;;3.90;;
19905;SDS011;10115;50.906;4.438;2023-01-08T00:14:05;4.57;;;4.23;;
19905;SDS011;10115;50.906;4.438;2023-01-08T00:16:30;4.07;;;3.87;;
19905;SDS011;10115;50.906;4.438;2023-01-08T00:18:56;4.43;;;4.23;;
19905;SDS011;10115;50.906;4.438;2023-01-08T00:21:22;7.47;;;3.57;;
19905;SDS011;10115;50.906;4.438;2023-01-08T00:23:48;3.50;;;3.40;;
19905;SDS011;10115;50.906;4.438;2023-01-08T00:26:14;3.80;;;3.40;;
19905;SDS011;10115;50.906;4.438;2023-01-08T00:28:39;6.27;;;5.53;;
19905;SDS011;10115;50.906;4.438;2023-01-08T00:31:06;3.60;;;3.50;;
19905;SDS011;10115;50.906;4.438;2023-01-08T00:33:34;3.70;;;3.50;;
19905;SDS011;10115;50.906;4.438;2023-01-08T00:36:05;4.03;;;3.83;;
19905;SDS011;10115;50.906;4.438;2023-01-08T00:38:39;12.60;;;4.43;;
19905;SDS011;10115;50.906;4.438;2023-01-08T00:41:05;3.60;;;3.50;;
19905;SDS011;10115;50.906;4.438;2023-01-08T00:43:31;3.43;;;3.33;;
19905;SDS011;10115;50.906;4.438;2023-01-08T00:45:57;3.50;;;3.40;;
19905;SDS011;10115;50.906;4.438;2023-01-08T00:48:23;4.47;;;4.07;;
19905;SDS011;10115;50.906;4.438;2023-01-08T00:50:49;5.50;;;4.43;;
19905;SDS011;10115;50.906;4.438;2023-01-08T00:53:16;3.83;;;3.63;;
19905;SDS011;10115;50.906;4.438;2023-01-08T00:55:42;3.70;;;3.50;;
19905;SDS011;10115;50.906;4.438;2023-01-08T00:58:08;3.97;;;3.77;;
19905;SDS011;10115;50.906;4.438;2023-01-08T01:00:34;4.43;;;4.10;;
19905;SDS011;10115;50.906;4.438;2023-01-08T01:03:00;3.80;;;3.70;;
19905;SDS011;10115;50.906;4.438;2023-01-08T01:05:26;3.73;;;3.50;;
19905;SDS011;10115;50.906;4.438;2023-01-08T01:07:52;3.80;;;3.60;;
19905;SDS011;10115;50.906;4.438;2023-01-08T01:10:17;4.30;;;4.00;;
19905;SDS011;10115;50.906;4.438;2023-01-08T01:12:43;3.67;;;3.57;;
19905;SDS011;10115;50.906;4.438;2023-01-08T01:15:10;3.60;;;3.47;;
19905;SDS011;10115;50.906;4.438;2023-01-08T01:17:38;3.50;;;3.40;;
19905;SDS011;10115;50.906;4.438;2023-01-08T01:20:07;3.70;;;3.50;;
19905;SDS011;10115;50.906;4.438;2023-01-08T01:22:35;6.53;;;4.13;;
19905;SDS011;10115;50.906;4.438;2023-01-08T01:25:02;3.97;;;3.60;;
19905;SDS011;10115;50.906;4.438;2023-01-08T01:27:28;3.53;;;3.33;;
19905;SDS011;10115;50.906;4.438;2023-01-08T01:29:54;3.40;;;3.30;;
19905;SDS011;10115;50.906;4.438;2023-01-08T01:32:19;4.53;;;3.50;;
19905;SDS011;10115;50.906;4.438;2023-01-08T01:34:45;3.77;;;3.57;;
19905;SDS011;10115;50.906;4.438;2023-01-08T01:37:11;4.20;;;3.80;;
19905;SDS011;10115;50.906;4.438;2023-01-08T01:39:38;4.67;;;4.37;;
19905;SDS011;10115;50.906;4.438;2023-01-08T01:42:04;4.50;;;3.87;;
19905;SDS011;10115;50.906;4.438;2023-01-08T01:47:03;3.77;;;3.57;;
19905;SDS011;10115;50.906;4.438;2023-01-08T01:50:14;4.03;;;3.93;;
19905;SDS011;10115;50.906;4.438;2023-01-08T01:52:47;3.80;;;3.60;;
19905;SDS011;10115;50.906;4.438;2023-01-08T01:55:15;4.00;;;3.60;;
19905;SDS011;10115;50.906;4.438;2023-01-08T01:57:48;7.20;;;3.63;;
19905;SDS011;10115;50.906;4.438;2023-01-08T02:00:19;3.30;;;3.20;;
19905;SDS011;10115;50.906;4.438;2023-01-08T02:02:46;3.77;;;3.57;;
19905;SDS011;10115;50.906;4.438;2023-01-08T02:05:11;3.63;;;3.40;;
19905;SDS011;10115;50.906;4.438;2023-01-08T02:07:57;6.17;;;3.50;;
19905;SDS011;10115;50.906;4.438;2023-01-08T02:13:16;4.17;;;3.77;;
19905;SDS011;10115;50.906;4.438;2023-01-08T02:18:24;3.93;;;3.73;;
19905;SDS011;10115;50.906;4.438;2023-01-08T02:21:01;3.47;;;3.37;;
19905;SDS011;10115;50.906;4.438;2023-01-08T02:23:49;9.23;;;3.67;;
19905;SDS011;10115;50.906;4.438;2023-01-08T02:26:28;4.10;;;3.90;;
19905;SDS011;10115;50.906;4.438;2023-01-08T02:29:13;5.73;;;3.90;;
19905;SDS011;10115;50.906;4.438;2023-01-08T02:31:44;11.97;;;3.77;;
19905;SDS011;10115;50.906;4.438;2023-01-08T02:34:10;3.97;;;3.67;;
19905;SDS011;10115;50.906;4.438;2023-01-08T02:36:44;3.97;;;3.77;;
19905;SDS011;10115;50.906;4.438;2023-01-08T02:47:40;4.03;;;3.83;;
19905;SDS011;10115;50.906;4.438;2023-01-08T02:50:20;3.60;;;3.40;;
19905;SDS011;10115;50.906;4.438;2023-01-08T02:55:57;3.67;;;3.47;;
19905;SDS011;10115;50.906;4.438;2023-01-08T02:58:26;3.50;;;3.40;;
19905;SDS011;10115;50.906;4.438;2023-01-08T03:00:56;4.43;;;4.23;;
19905;SDS011;10115;50.906;4.438;2023-01-08T03:03:23;3.40;;;3.30;;
19905;SDS011;10115;50.906;4.438;2023-01-08T03:05:55;4.03;;;3.83;;
19905;SDS011;10115;50.906;4.438;2023-01-08T03:08:33;5.33;;;3.83;;
19905;SDS011;10115;50.906;4.438;2023-01-08T03:11:04;3.73;;;3.63;;
19905;SDS011;10115;50.906;4.438;2023-01-08T03:13:45;4.37;;;4.10;;
19905;SDS011;10115;50.906;4.438;2023-01-08T03:21:41;4.10;;;3.57;;
19905;SDS011;10115;50.906;4.438;2023-01-08T03:24:08;9.33;;;3.93;;
19905;SDS011;10115;50.906;4.438;2023-01-08T03:26:38;6.50;;;3.90;;
19905;SDS011;10115;50.906;4.438;2023-01-08T03:29:08;3.90;;;3.70;;
19905;SDS011;10115;50.906;4.438;2023-01-08T03:31:37;4.10;;;3.80;;
19905;SDS011;10115;50.906;4.438;2023-01-08T03:34:04;4.10;;;3.90;;
19905;SDS011;10115;50.906;4.438;2023-01-08T03:36:31;4.27;;;3.97;;
19905;SDS011;10115;50.906;4.438;2023-01-08T03:38:59;6.63;;;5.80;;
19905;SDS011;10115;50.906;4.438;2023-01-08T03:41:32;9.10;;;8.50;;
19905;SDS011;10115;50.906;4.438;2023-01-08T03:44:00;6.50;;;6.20;;
19905;SDS011;10115;50.906;4.438;2023-01-08T03:46:27;5.83;;;4.77;;
19905;SDS011;10115;50.906;4.438;2023-01-08T03:48:56;4.90;;;4.50;;
19905;SDS011;10115;50.906;4.438;2023-01-08T03:51:23;5.80;;;5.60;;
19905;SDS011;10115;50.906;4.438;2023-01-08T03:53:49;5.73;;;5.50;;
19905;SDS011;10115;50.906;4.438;2023-01-08T03:56:17;4.60;;;4.40;;
19905;SDS011;10115;50.906;4.438;2023-01-08T03:58:42;13.17;;;5.50;;
19905;SDS011;10115;50.906;4.438;2023-01-08T04:01:08;8.17;;;5.13;;
19905;SDS011;10115;50.906;4.438;2023-01-08T04:03:34;9.27;;;8.70;;
19905;SDS011;10115;50.906;4.438;2023-01-08T04:06:00;5.43;;;5.23;;
19905;SDS011;10115;50.906;4.438;2023-01-08T04:08:26;9.37;;;8.83;;
19905;SDS011;10115;50.906;4.438;2023-01-08T04:10:51;5.77;;;5.47;;
19905;SDS011;10115;50.906;4.438;2023-01-08T04:13:17;6.10;;;5.80;;
19905;SDS011;10115;50.906;4.438;2023-01-08T04:15:49;5.07;;;4.80;;
19905;SDS011;10115;50.906;4.438;2023-01-08T04:18:15;5.53;;;4.83;;
19905;SDS011;10115;50.906;4.438;2023-01-08T04:20:45;4.70;;;4.47;;
19905;SDS011;10115;50.906;4.438;2023-01-08T04:23:12;5.90;;;5.50;;
19905;SDS011;10115;50.906;4.438;2023-01-08T04:25:38;7.90;;;7.53;;
19905;SDS011;10115;50.906;4.438;2023-01-08T04:28:04;5.70;;;5.30;;
19905;SDS011;10115;50.906;4.438;2023-01-08T04:30:30;5.37;;;4.87;;
19905;SDS011;10115;50.906;4.438;2023-01-08T04:32:56;5.20;;;5.00;;
19905;SDS011;10115;50.906;4.438;2023-01-08T04:35:21;7.37;;;6.77;;
19905;SDS011;10115;50.906;4.438;2023-01-08T04:37:47;8.60;;;8.30;;
19905;SDS011;10115;50.906;4.438;2023-01-08T04:40:13;8.77;;;8.37;;
19905;SDS011;10115;50.906;4.438;2023-01-08T04:42:39;7.67;;;5.47;;
19905;SDS011;10115;50.906;4.438;2023-01-08T04:45:05;8.93;;;8.53;;
19905;SDS011;10115;50.906;4.438;2023-01-08T04:47:31;9.53;;;9.03;;
19905;SDS011;10115;50.906;4.438;2023-01-08T04:49:57;9.13;;;8.17;;
19905;SDS011;10115;50.906;4.438;2023-01-08T04:52:23;8.87;;;8.47;;
19905;SDS011;10115;50.906;4.438;2023-01-08T04:54:49;9.07;;;8.47;;
19905;SDS011;10115;50.906;4.438;2023-01-08T04:57:14;8.33;;;7.93;;
19905;SDS011;10115;50.906;4.438;2023-01-08T04:59:40;9.33;;;8.93;;
19905;SDS011;10115;50.906;4.438;2023-01-08T05:02:05;9.00;;;8.50;;
19905;SDS011;10115;50.906;4.438;2023-01-08T05:04:31;9.43;;;5.83;;
19905;SDS011;10115;50.906;4.438;2023-01-08T05:06:57;8.73;;;8.23;;
19905;SDS011;10115;50.906;4.438;2023-01-08T05:09:23;9.60;;;9.20;;
19905;SDS011;10115;50.906;4.438;2023-01-08T05:11:48;8.80;;;8.30;;
19905;SDS011;10115;50.906;4.438;2023-01-08T05:14:14;8.33;;;7.83;;
19905;SDS011;10115;50.906;4.438;2023-01-08T05:16:40;9.23;;;8.50;;
19905;SDS011;10115;50.906;4.438;2023-01-08T05:19:05;9.47;;;8.67;;
19905;SDS011;10115;50.906;4.438;2023-01-08T05:21:31;7.10;;;6.80;;
19905;SDS011;10115;50.906;4.438;2023-01-08T05:23:57;11.00;;;9.93;;
19905;SDS011;10115;50.906;4.438;2023-01-08T05:26:22;7.87;;;7.57;;
19905;SDS011;10115;50.906;4.438;2023-01-08T05:28:48;7.87;;;7.37;;
19905;SDS011;10115;50.906;4.438;2023-01-08T05:31:14;7.97;;;7.57;;
19905;SDS011;10115;50.906;4.438;2023-01-08T05:33:40;7.57;;;7.27;;
19905;SDS011;10115;50.906;4.438;2023-01-08T05:36:06;8.07;;;7.67;;
19905;SDS011;10115;50.906;4.438;2023-01-08T05:38:34;7.97;;;7.57;;
19905;SDS011;10115;50.906;4.438;2023-01-08T05:40:59;9.50;;;6.57;;
19905;SDS011;10115;50.906;4.438;2023-01-08T05:43:25;8.50;;;8.00;;
19905;SDS011;10115;50.906;4.438;2023-01-08T05:45:51;7.63;;;7.33;;
19905;SDS011;10115;50.906;4.438;2023-01-08T05:48:17;4.73;;;4.37;;
19905;SDS011;10115;50.906;4.438;2023-01-08T05:50:42;6.10;;;5.70;;
19905;SDS011;10115;50.906;4.438;2023-01-08T05:53:08;5.53;;;5.03;;
19905;SDS011;10115;50.906;4.438;2023-01-08T05:55:34;5.00;;;4.67;;
19905;SDS011;10115;50.906;4.438;2023-01-08T05:58:00;5.40;;;4.53;;
19905;SDS011;10115;50.906;4.438;2023-01-08T06:00:27;3.90;;;3.80;;
19905;SDS011;10115;50.906;4.438;2023-01-08T06:02:53;5.43;;;5.13;;
19905;SDS011;10115;50.906;4.438;2023-01-08T06:05:18;4.37;;;4.07;;
19905;SDS011;10115;50.906;4.438;2023-01-08T06:07:44;10.20;;;5.07;;
19905;SDS011;10115;50.906;4.438;2023-01-08T06:10:10;4.30;;;4.00;;
19905;SDS011;10115;50.906;4.438;2023-01-08T06:12:35;4.50;;;4.20;;
19905;SDS011;10115;50.906;4.438;2023-01-08T06:15:02;4.40;;;4.20;;
19905;SDS011;10115;50.906;4.438;2023-01-08T06:17:28;9.13;;;4.77;;
19905;SDS011;10115;50.906;4.438;2023-01-08T06:19:54;5.97;;;5.50;;
19905;SDS011;10115;50.906;4.438;2023-01-08T06:22:19;5.03;;;4.83;;
19905;SDS011;10115;50.906;4.438;2023-01-08T06:24:45;13.50;;;5.00;;
19905;SDS011;10115;50.906;4.438;2023-01-08T06:27:11;4.40;;;4.20;;
19905;SDS011;10115;50.906;4.438;2023-01-08T06:29:36;13.27;;;5.20;;
19905;SDS011;10115;50.906;4.438;2023-01-08T06:32:02;5.33;;;4.20;;
19905;SDS011;10115;50.906;4.438;2023-01-08T06:34:28;10.20;;;4.67;;
19905;SDS011;10115;50.906;4.438;2023-01-08T06:36:53;5.93;;;4.73;;
19905;SDS011;10115;50.906;4.438;2023-01-08T06:39:19;15.53;;;5.13;;
19905;SDS011;10115;50.906;4.438;2023-01-08T06:41:44;9.73;;;4.20;;
19905;SDS011;10115;50.906;4.438;2023-01-08T06:44:10;5.33;;;4.87;;
19905;SDS011;10115;50.906;4.438;2023-01-08T06:46:36;4.23;;;4.00;;
19905;SDS011;10115;50.906;4.438;2023-01-08T06:49:04;4.10;;;3.90;;
19905;SDS011;10115;50.906;4.438;2023-01-08T06:51:30;4.50;;;4.17;;
19905;SDS011;10115;50.906;4.438;2023-01-08T06:53:56;5.23;;;4.73;;
19905;SDS011;10115;50.906;4.438;2023-01-08T06:56:22;5.17;;;4.13;;
19905;SDS011;10115;50.906;4.438;2023-01-08T06:58:48;10.90;;;4.57;;
19905;SDS011;10115;50.906;4.438;2023-01-08T07:01:14;4.00;;;3.80;;
19905;SDS011;10115;50.906;4.438;2023-01-08T07:03:40;4.17;;;3.87;;
19905;SDS011;10115;50.906;4.438;2023-01-08T07:06:10;4.23;;;4.03;;
19905;SDS011;10115;50.906;4.438;2023-01-08T07:08:42;4.07;;;3.87;;
19905;SDS011;10115;50.906;4.438;2023-01-08T07:11:08;5.80;;;3.73;;
19905;SDS011;10115;50.906;4.438;2023-01-08T07:13:35;6.03;;;4.03;;
19905;SDS011;10115;50.906;4.438;2023-01-08T07:16:19;6.20;;;4.43;;
19905;SDS011;10115;50.906;4.438;2023-01-08T07:18:44;5.23;;;4.53;;
19905;SDS011;10115;50.906;4.438;2023-01-08T07:21:10;12.23;;;4.67;;
19905;SDS011;10115;50.906;4.438;2023-01-08T07:23:36;12.00;;;4.50;;
19905;SDS011;10115;50.906;4.438;2023-01-08T07:26:03;10.60;;;4.57;;
19905;SDS011;10115;50.906;4.438;2023-01-08T07:28:30;9.43;;;3.70;;
19905;SDS011;10115;50.906;4.438;2023-01-08T07:30:56;7.77;;;4.50;;
19905;SDS011;10115;50.906;4.438;2023-01-08T07:33:22;12.93;;;4.53;;
19905;SDS011;10115;50.906;4.438;2023-01-08T07:35:54;7.43;;;5.13;;
19905;SDS011;10115;50.906;4.438;2023-01-08T07:38:20;7.53;;;4.57;;
19905;SDS011;10115;50.906;4.438;2023-01-08T07:40:47;4.50;;;4.20;;
19905;SDS011;10115;50.906;4.438;2023-01-08T07:43:12;4.20;;;3.90;;
19905;SDS011;10115;50.906;4.438;2023-01-08T07:45:38;11.03;;;4.10;;
19905;SDS011;10115;50.906;4.438;2023-01-08T07:48:04;4.47;;;4.13;;
19905;SDS011;10115;50.906;4.438;2023-01-08T07:50:30;4.10;;;3.90;;
19905;SDS011;10115;50.906;4.438;2023-01-08T07:53:00;4.20;;;4.00;;
19905;SDS011;10115;50.906;4.438;2023-01-08T07:55:26;5.07;;;4.67;;
19905;SDS011;10115;50.906;4.438;2023-01-08T07:57:53;5.20;;;4.47;;
19905;SDS011;10115;50.906;4.438;2023-01-08T08:00:19;6.00;;;4.13;;
19905;SDS011;10115;50.906;4.438;2023-01-08T08:02:45;5.07;;;4.10;;
19905;SDS011;10115;50.906;4.438;2023-01-08T08:05:10;4.20;;;4.00;;
19905;SDS011;10115;50.906;4.438;2023-01-08T08:07:36;7.63;;;4.53;;
19905;SDS011;10115;50.906;4.438;2023-01-08T08:10:02;5.83;;;5.37;;
19905;SDS011;10115;50.906;4.438;2023-01-08T08:12:29;3.97;;;3.70;;
19905;SDS011;10115;50.906;4.438;2023-01-08T08:14:55;4.93;;;4.47;;
19905;SDS011;10115;50.906;4.438;2023-01-08T08:17:20;4.50;;;4.30;;
19905;SDS011;10115;50.906;4.438;2023-01-08T08:19:46;6.60;;;4.27;;
19905;SDS011;10115;50.906;4.438;2023-01-08T08:22:12;4.93;;;4.70;;
19905;SDS011;10115;50.906;4.438;2023-01-08T08:24:38;8.50;;;4.37;;
19905;SDS011;10115;50.906;4.438;2023-01-08T08:27:03;5.60;;;5.20;;
19905;SDS011;10115;50.906;4.438;2023-01-08T08:29:29;5.03;;;4.57;;
19905;SDS011;10115;50.906;4.438;2023-01-08T08:31:55;5.07;;;4.57;;
19905;SDS011;10115;50.906;4.438;2023-01-08T08:34:21;9.07;;;4.47;;
19905;SDS011;10115;50.906;4.438;2023-01-08T08:36:47;3.90;;;3.70;;
19905;SDS011;10115;50.906;4.438;2023-01-08T08:39:13;4.50;;;4.10;;
19905;SDS011;10115;50.906;4.438;2023-01-08T08:41:39;5.03;;;4.63;;
19905;SDS011;10115;50.906;4.438;2023-01-08T08:44:06;4.50;;;4.10;;
19905;SDS011;10115;50.906;4.438;2023-01-08T08:46:32;10.83;;;4.43;;
19905;SDS011;10115;50.906;4.438;2023-01-08T08:48:58;4.00;;;3.87;;
19905;SDS011;10115;50.906;4.438;2023-01-08T08:51:24;4.33;;;4.03;;
19905;SDS011;10115;50.906;4.438;2023-01-08T08:53:50;4.37;;;4.17;;
19905;SDS011;10115;50.906;4.438;2023-01-08T08:56:16;5.37;;;4.00;;
19905;SDS011;10115;50.906;4.438;2023-01-08T08:58:42;4.90;;;4.50;;
19905;SDS011;10115;50.906;4.438;2023-01-08T09:01:09;6.67;;;4.50;;
19905;SDS011;10115;50.906;4.438;2023-01-08T09:03:35;4.50;;;4.20;;
19905;SDS011;10115;50.906;4.438;2023-01-08T09:06:01;3.90;;;3.70;;
19905;SDS011;10115;50.906;4.438;2023-01-08T09:08:27;3.83;;;3.73;;
19905;SDS011;10115;50.906;4.438;2023-01-08T09:10:53;3.97;;;3.80;;
19905;SDS011;10115;50.906;4.438;2023-01-08T09:13:19;4.03;;;3.83;;
19905;SDS011;10115;50.906;4.438;2023-01-08T09:15:45;4.10;;;3.90;;
19905;SDS011;10115;50.906;4.438;2023-01-08T09:18:10;3.77;;;3.67;;
19905;SDS011;10115;50.906;4.438;2023-01-08T09:20:36;4.13;;;3.93;;
19905;SDS011;10115;50.906;4.438;2023-01-08T09:23:02;4.53;;;4.20;;
19905;SDS011;10115;50.906;4.438;2023-01-08T09:25:28;5.47;;;3.97;;
19905;SDS011;10115;50.906;4.438;2023-01-08T09:28:01;4.00;;;3.80;;
19905;SDS011;10115;50.906;4.438;2023-01-08T09:30:29;4.17;;;3.90;;
19905;SDS011;10115;50.906;4.438;2023-01-08T09:32:56;4.97;;;4.30;;
19905;SDS011;10115;50.906;4.438;2023-01-08T09:35:23;3.77;;;3.67;;
19905;SDS011;10115;50.906;4.438;2023-01-08T09:37:49;3.87;;;3.63;;
19905;SDS011;10115;50.906;4.438;2023-01-08T09:40:16;3.70;;;3.60;;
19905;SDS011;10115;50.906;4.438;2023-01-08T09:42:42;4.13;;;3.93;;
19905;SDS011;10115;50.906;4.438;2023-01-08T09:45:11;3.77;;;3.67;;
19905;SDS011;10115;50.906;4.438;2023-01-08T09:47:46;4.23;;;4.03;;
19905;SDS011;10115;50.906;4.438;2023-01-08T09:50:12;4.27;;;3.70;;
19905;SDS011;10115;50.906;4.438;2023-01-08T09:52:39;4.20;;;3.93;;
19905;SDS011;10115;50.906;4.438;2023-01-08T09:55:11;3.67;;;3.57;;
19905;SDS011;10115;50.906;4.438;2023-01-08T09:57:38;4.60;;;4.30;;
19905;SDS011;10115;50.906;4.438;2023-01-08T10:00:09;4.90;;;3.77;;
19905;SDS011;10115;50.906;4.438;2023-01-08T10:02:40;3.40;;;3.30;;
19905;SDS011;10115;50.906;4.438;2023-01-08T10:05:11;3.93;;;3.73;;
19905;SDS011;10115;50.906;4.438;2023-01-08T10:07:39;4.10;;;3.87;;
19905;SDS011;10115;50.906;4.438;2023-01-08T10:10:05;4.03;;;3.87;;
19905;SDS011;10115;50.906;4.438;2023-01-08T10:12:41;4.00;;;3.80;;
19905;SDS011;10115;50.906;4.438;2023-01-08T10:15:07;4.03;;;3.80;;
19905;SDS011;10115;50.906;4.438;2023-01-08T10:17:38;3.87;;;3.67;;
19905;SDS011;10115;50.906;4.438;2023-01-08T10:20:16;4.27;;;3.97;;
19905;SDS011;10115;50.906;4.438;2023-01-08T10:22:44;3.70;;;3.60;;
19905;SDS011;10115;50.906;4.438;2023-01-08T10:25:33;3.90;;;3.70;;
19905;SDS011;10115;50.906;4.438;2023-01-08T10:30:37;4.10;;;3.90;;
19905;SDS011;10115;50.906;4.438;2023-01-08T10:33:10;4.43;;;4.23;;
19905;SDS011;10115;50.906;4.438;2023-01-08T10:35:42;4.30;;;4.10;;
19905;SDS011;10115;50.906;4.438;2023-01-08T10:38:27;4.20;;;3.90;;
19905;SDS011;10115;50.906;4.438;2023-01-08T10:40:56;4.67;;;4.40;;
19905;SDS011;10115;50.906;4.438;2023-01-08T10:43:30;5.50;;;5.00;;
19905;SDS011;10115;50.906;4.438;2023-01-08T10:46:00;4.73;;;4.53;;
19905;SDS011;10115;50.906;4.438;2023-01-08T10:48:47;4.10;;;3.90;;
19905;SDS011;10115;50.906;4.438;2023-01-08T10:51:25;4.03;;;3.93;;
19905;SDS011;10115;50.906;4.438;2023-01-08T10:53:53;4.53;;;4.33;;
19905;SDS011;10115;50.906;4.438;2023-01-08T10:56:23;4.27;;;4.07;;
19905;SDS011;10115;50.906;4.438;2023-01-08T10:58:51;5.83;;;4.47;;
19905;SDS011;10115;50.906;4.438;2023-01-08T11:03:52;4.03;;;3.73;;
19905;SDS011;10115;50.906;4.438;2023-01-08T11:06:29;4.23;;;4.00;;
19905;SDS011;10115;50.906;4.438;2023-01-08T11:09:45;3.90;;;3.70;;
19905;SDS011;10115;50.906;4.438;2023-01-08T11:11:50;4.10;;;3.90;;
19905;SDS011;10115;50.906;4.438;2023-01-08T11:14:19;4.30;;;4.10;;
19905;SDS011;10115;50.906;4.438;2023-01-08T11:16:48;4.43;;;4.23;;
19905;SDS011;10115;50.906;4.438;2023-01-08T11:19:30;4.13;;;3.87;;
19905;SDS011;10115;50.906;4.438;2023-01-08T11:22:01;4.80;;;4.40;;
19905;SDS011;10115;50.906;4.438;2023-01-08T11:24:29;4.50;;;3.93;;
19905;SDS011;10115;50.906;4.438;2023-01-08T11:29:43;5.30;;;4.93;;
19905;SDS011;10115;50.906;4.438;2023-01-08T11:35:19;5.03;;;4.00;;
19905;SDS011;10115;50.906;4.438;2023-01-08T11:40:17;6.37;;;4.20;;
19905;SDS011;10115;50.906;4.438;2023-01-08T11:43:03;11.83;;;4.10;;
19905;SDS011;10115;50.906;4.438;2023-01-08T11:50:47;4.67;;;4.37;;
19905;SDS011;10115;50.906;4.438;2023-01-08T11:59:18;6.20;;;5.00;;
19905;SDS011;10115;50.906;4.438;2023-01-08T12:10:37;4.50;;;4.07;;
19905;SDS011;10115;50.906;4.438;2023-01-08T12:18:43;5.03;;;4.70;;
19905;SDS011;10115;50.906;4.438;2023-01-08T12:32:52;4.23;;;3.87;;
19905;SDS011;10115;50.906;4.438;2023-01-08T12:35:24;4.10;;;3.90;;
19905;SDS011;10115;50.906;4.438;2023-01-08T12:40:58;3.93;;;3.40;;
19905;SDS011;10115;50.906;4.438;2023-01-08T12:43:44;6.73;;;4.37;;
19905;SDS011;10115;50.906;4.438;2023-01-08T12:46:17;4.50;;;3.87;;
19905;SDS011;10115;50.906;4.438;2023-01-08T12:48:45;3.50;;;3.40;;
19905;SDS011;10115;50.906;4.438;2023-01-08T12:51:16;4.07;;;3.77;;
19905;SDS011;10115;50.906;4.438;2023-01-08T12:56:59;3.57;;;3.47;;
19905;SDS011;10115;50.906;4.438;2023-01-08T13:01:59;4.60;;;3.90;;
19905;SDS011;10115;50.906;4.438;2023-01-08T13:04:45;4.07;;;3.77;;
19905;SDS011;10115;50.906;4.438;2023-01-08T13:07:17;4.80;;;4.23;;
19905;SDS011;10115;50.906;4.438;2023-01-08T13:10:07;4.00;;;3.70;;
19905;SDS011;10115;50.906;4.438;2023-01-08T13:12:48;4.43;;;3.90;;
19905;SDS011;10115;50.906;4.438;2023-01-08T13:15:22;3.77;;;3.57;;
19905;SDS011;10115;50.906;4.438;2023-01-08T13:17:50;3.80;;;3.70;;
19905;SDS011;10115;50.906;4.438;2023-01-08T13:20:19;4.23;;;4.03;;
19905;SDS011;10115;50.906;4.438;2023-01-08T13:22:51;4.20;;;3.90;;
19905;SDS011;10115;50.906;4.438;2023-01-08T13:27:45;4.03;;;3.80;;
19905;SDS011;10115;50.906;4.438;2023-01-08T13:35:51;5.00;;;4.13;;
19905;SDS011;10115;50.906;4.438;2023-01-08T13:38:30;5.33;;;4.87;;
19905;SDS011;10115;50.906;4.438;2023-01-08T13:40:56;5.33;;;4.83;;
19905;SDS011;10115;50.906;4.438;2023-01-08T13:43:35;4.70;;;4.40;;
19905;SDS011;10115;50.906;4.438;2023-01-08T13:46:05;4.50;;;3.97;;
19905;SDS011;10115;50.906;4.438;2023-01-08T13:54:21;3.57;;;3.43;;
19905;SDS011;10115;50.906;4.438;2023-01-08T13:57:00;3.70;;;3.53;;
19905;SDS011;10115;50.906;4.438;2023-01-08T14:02:16;4.07;;;3.87;;
19905;SDS011;10115;50.906;4.438;2023-01-08T14:04:56;6.00;;;3.83;;
19905;SDS011;10115;50.906;4.438;2023-01-08T14:07:23;3.63;;;3.53;;
19905;SDS011;10115;50.906;4.438;2023-01-08T14:09:50;4.23;;;3.93;;
19905;SDS011;10115;50.906;4.438;2023-01-08T14:12:17;4.10;;;3.90;;
19905;SDS011;10115;50.906;4.438;2023-01-08T14:14:52;6.73;;;4.37;;
19905;SDS011;10115;50.906;4.438;2023-01-08T14:17:22;4.17;;;3.97;;
19905;SDS011;10115;50.906;4.438;2023-01-08T14:19:54;4.00;;;3.80;;
19905;SDS011;10115;50.906;4.438;2023-01-08T14:22:21;4.70;;;4.47;;
19905;SDS011;10115;50.906;4.438;2023-01-08T14:24:55;3.60;;;3.50;;
19905;SDS011;10115;50.906;4.438;2023-01-08T14:27:24;4.33;;;3.73;;
19905;SDS011;10115;50.906;4.438;2023-01-08T14:29:52;4.27;;;3.97;;
19905;SDS011;10115;50.906;4.438;2023-01-08T14:32:20;7.20;;;4.57;;
19905;SDS011;10115;50.906;4.438;2023-01-08T14:34:51;3.50;;;3.40;;
19905;SDS011;10115;50.906;4.438;2023-01-08T14:37:18;6.10;;;4.30;;
19905;SDS011;10115;50.906;4.438;2023-01-08T14:39:44;4.60;;;4.20;;
19905;SDS011;10115;50.906;4.438;2023-01-08T14:45:17;4.20;;;4.00;;
19905;SDS011;10115;50.906;4.438;2023-01-08T14:47:46;4.10;;;3.70;;
19905;SDS011;10115;50.906;4.438;2023-01-08T14:50:27;4.47;;;4.17;;
19905;SDS011;10115;50.906;4.438;2023-01-08T14:52:57;4.30;;;3.93;;
19905;SDS011;10115;50.906;4.438;2023-01-08T14:55:29;4.00;;;3.80;;
19905;SDS011;10115;50.906;4.438;2023-01-08T14:57:58;4.30;;;3.93;;
19905;SDS011;10115;50.906;4.438;2023-01-08T15:00:25;4.07;;;3.87;;
19905;SDS011;10115;50.906;4.438;2023-01-08T15:02:53;6.53;;;4.30;;
19905;SDS011;10115;50.906;4.438;2023-01-08T15:05:28;4.00;;;3.70;;
19905;SDS011;10115;50.906;4.438;2023-01-08T15:08:42;4.40;;;4.20;;
19905;SDS011;10115;50.906;4.438;2023-01-08T15:11:03;4.30;;;3.90;;
19905;SDS011;10115;50.906;4.438;2023-01-08T15:13:31;4.10;;;3.80;;
19905;SDS011;10115;50.906;4.438;2023-01-08T15:16:44;3.50;;;3.40;;
19905;SDS011;10115;50.906;4.438;2023-01-08T15:18:54;4.93;;;4.43;;
19905;SDS011;10115;50.906;4.438;2023-01-08T15:21:24;4.50;;;4.17;;
19905;SDS011;10115;50.906;4.438;2023-01-08T15:23:51;10.43;;;5.27;;
19905;SDS011;10115;50.906;4.438;2023-01-08T15:26:19;5.23;;;4.23;;
19905;SDS011;10115;50.906;4.438;2023-01-08T15:28:54;4.53;;;4.23;;
19905;SDS011;10115;50.906;4.438;2023-01-08T15:31:26;4.97;;;4.00;;
19905;SDS011;10115;50.906;4.438;2023-01-08T15:33:53;4.40;;;4.03;;
19905;SDS011;10115;50.906;4.438;2023-01-08T15:36:20;4.30;;;4.10;;
19905;SDS011;10115;50.906;4.438;2023-01-08T15:38:46;6.80;;;3.87;;
19905;SDS011;10115;50.906;4.438;2023-01-08T15:41:16;4.67;;;4.37;;
19905;SDS011;10115;50.906;4.438;2023-01-08T15:44:04;6.10;;;4.03;;
19905;SDS011;10115;50.906;4.438;2023-01-08T15:46:30;6.63;;;4.27;;
19905;SDS011;10115;50.906;4.438;2023-01-08T15:48:56;4.10;;;3.90;;
19905;SDS011;10115;50.906;4.438;2023-01-08T15:51:22;4.27;;;3.93;;
19905;SDS011;10115;50.906;4.438;2023-01-08T15:53:49;6.03;;;5.00;;
19905;SDS011;10115;50.906;4.438;2023-01-08T15:56:14;3.93;;;3.80;;
19905;SDS011;10115;50.906;4.438;2023-01-08T15:58:40;5.70;;;3.63;;
19905;SDS011;10115;50.906;4.438;2023-01-08T16:01:07;3.90;;;3.70;;
19905;SDS011;10115;50.906;4.438;2023-01-08T16:03:33;3.80;;;3.67;;
19905;SDS011;10115;50.906;4.438;2023-01-08T16:05:58;3.70;;;3.50;;
19905;SDS011;10115;50.906;4.438;2023-01-08T16:08:24;5.17;;;4.00;;
19905;SDS011;10115;50.906;4.438;2023-01-08T16:10:53;4.40;;;4.10;;
19905;SDS011;10115;50.906;4.438;2023-01-08T16:13:19;4.83;;;4.33;;
19905;SDS011;10115;50.906;4.438;2023-01-08T16:15:44;5.93;;;3.87;;
19905;SDS011;10115;50.906;4.438;2023-01-08T16:18:10;4.13;;;3.93;;
19905;SDS011;10115;50.906;4.438;2023-01-08T16:20:36;4.00;;;3.70;;
19905;SDS011;10115;50.906;4.438;2023-01-08T16:23:02;4.67;;;4.17;;
19905;SDS011;10115;50.906;4.438;2023-01-08T16:25:28;5.13;;;4.17;;
19905;SDS011;10115;50.906;4.438;2023-01-08T16:27:55;3.67;;;3.57;;
19905;SDS011;10115;50.906;4.438;2023-01-08T16:30:21;14.33;;;5.83;;
19905;SDS011;10115;50.906;4.438;2023-01-08T16:32:50;4.10;;;3.90;;
19905;SDS011;10115;50.906;4.438;2023-01-08T16:35:17;8.17;;;4.27;;
19905;SDS011;10115;50.906;4.438;2023-01-08T16:37:44;4.90;;;4.40;;
19905;SDS011;10115;50.906;4.438;2023-01-08T16:40:10;4.50;;;4.10;;
19905;SDS011;10115;50.906;4.438;2023-01-08T16:42:36;4.87;;;4.47;;